Showell, Maryland
Current Conditions -  °F | °C
As of 6:53 PM on Monday 20 Oct 2014 (Local Time) from KOXB Reporting Station
Clear Clear  
Wind Chill: 59°   Ceiling: Unl
Heat Index: 59°   Visibility: 10mi
Dew Point: 46°   Wind: 7mph
Humidity: 62%   Direction: 230°SW
Pressure: 30"   Gusts: NA
Location:  38.4°N, 75.22°W
Report Text: KOXB 202253Z AUTO 23006KT 10SM CLR 15/08 A3000 RMK AO2 SLP159 T01500078 TSNO
Loading
Personal Weather Stations






























Interactive Weather Map
Tropical Storm Tracking
New forecast layout! Learn more

10-Day Weather Forecast

Advertisements
Track Severe Weather on mobile